Time;durP1;ratioP1;P1;durP2;ratioP2;P2;SDS_P1;SDS_P2;PMS_P1;PMS_P2;Temp;Humidity;BMP_temperature;BMP_pressure;BME280_temperature;BME280_humidity;BME280_pressure;Samples;Min_cycle;Max_cycle;Signal;HPM_P1;HPM_P2
2023/02/05 00:03:24;;;;;;;7.30;2.28;;;12.10;99.90;;;;;;10558302;28;20057;-25
2023/02/05 00:08:26;;;;;;;7.73;3.27;;;10.70;99.90;;;;;;10543552;28;20151;-26
2023/02/05 00:13:29;;;;;;;21.17;10.20;;;11.80;99.90;;;;;;10557345;28;20076;-25
2023/02/05 00:18:31;;;;;;;24.92;13.18;;;12.90;99.90;;;;;;10550468;28;20044;-23
2023/02/05 00:23:34;;;;;;;7.87;3.63;;;15.40;99.90;;;;;;10560956;28;20119;-24
2023/02/05 00:28:38;;;;;;;9.73;4.32;;;13.30;99.90;;;;;;10573933;28;20147;-26
2023/02/05 00:33:40;;;;;;;11.13;4.50;;;13.10;99.90;;;;;;10566622;28;20135;-25
2023/02/05 00:38:43;;;;;;;12.07;6.63;;;12.80;99.90;;;;;;10558376;28;20063;-24
2023/02/05 00:43:46;;;;;;;11.35;2.70;;;13.40;99.90;;;;;;10553826;28;20136;-26
2023/02/05 00:48:48;;;;;;;11.63;3.70;;;11.60;99.90;;;;;;10551598;28;20430;-25
2023/02/05 00:53:50;;;;;;;4.57;1.67;;;11.50;99.90;;;;;;10553351;28;20040;-25
2023/02/05 00:58:53;;;;;;;8.02;3.83;;;11.30;99.90;;;;;;10565495;28;20047;-24
2023/02/05 01:03:55;;;;;;;9.82;2.88;;;11.40;99.90;;;;;;10552284;28;20044;-25
2023/02/05 01:08:57;;;;;;;11.10;1.30;;;10.40;99.90;;;;;;10560247;28;20496;-26
2023/02/05 01:14:00;;;;;;;8.00;2.50;;;10.50;99.90;;;;;;10570022;28;20553;-25
2023/02/05 01:19:02;;;;;;;9.40;3.63;;;10.70;99.90;;;;;;10551292;28;20135;-26
2023/02/05 01:24:04;;;;;;;5.68;2.20;;;10.00;99.90;;;;;;10552171;28;20109;-24
2023/02/05 01:29:07;;;;;;;15.47;4.00;;;11.40;99.90;;;;;;10565468;28;20039;-24
2023/02/05 01:34:09;;;;;;;8.70;2.53;;;10.80;99.90;;;;;;10560781;28;20580;-25
2023/02/05 01:39:11;;;;;;;7.78;1.75;;;10.60;99.90;;;;;;10564523;28;20754;-25
2023/02/05 01:44:18;;;;;;;9.43;3.25;;;10.10;99.90;;;;;;10573461;28;20074;-24
2023/02/05 01:49:24;;;;;;;8.07;2.60;;;10.50;99.90;;;;;;10566596;28;20104;-25
2023/02/05 01:54:30;;;;;;;13.40;2.47;;;10.00;99.90;;;;;;10570364;28;20075;-24
2023/02/05 01:59:36;;;;;;;15.40;2.53;;;10.40;99.90;;;;;;10563791;28;20063;-25
2023/02/05 02:04:41;;;;;;;8.65;1.77;;;10.40;99.90;;;;;;10554187;28;20088;-26
2023/02/05 02:09:45;;;;;;;7.65;1.80;;;9.60;99.90;;;;;;10559591;28;20067;-26
2023/02/05 02:14:52;;;;;;;10.07;2.45;;;9.70;99.90;;;;;;10559083;28;20154;-25
2023/02/05 02:19:59;;;;;;;7.03;2.35;;;9.60;99.90;;;;;;10548509;28;20046;-24
2023/02/05 02:25:27;;;;;;;12.05;3.13;;;10.70;99.90;;;;;;10565010;28;20146;-25
2023/02/05 02:30:39;;;;;;;11.27;3.00;;;10.90;99.90;;;;;;10553693;28;20079;-25
2023/02/05 02:35:46;;;;;;;13.88;3.28;;;10.30;99.90;;;;;;10559863;28;20044;-23
2023/02/05 02:40:51;;;;;;;13.43;3.35;;;9.80;99.90;;;;;;10559019;28;20044;-24
2023/02/05 02:46:00;;;;;;;12.10;3.30;;;9.60;99.90;;;;;;10561512;28;20071;-24
2023/02/05 02:51:03;;;;;;;14.18;3.83;;;9.80;99.90;;;;;;10550094;28;20064;-25
2023/02/05 02:56:06;;;;;;;;;;;9.40;99.90;;;;;;10550773;28;20043;-24
2023/02/05 03:01:11;;;;;;;9.70;2.95;;;10.80;99.90;;;;;;10564986;28;20021;-26
2023/02/05 03:06:15;;;;;;;9.57;3.38;;;9.20;99.90;;;;;;10562768;28;20104;-25
2023/02/05 03:11:17;;;;;;;8.90;3.45;;;9.40;99.90;;;;;;10554360;28;20075;-26
2023/02/05 03:16:20;;;;;;;8.70;3.33;;;9.90;99.90;;;;;;10560971;28;20418;-24
2023/02/05 03:21:27;;;;;;;17.75;4.97;;;9.40;99.90;;;;;;10554304;28;20068;-24
2023/02/05 03:26:33;;;;;;;16.05;4.75;;;9.40;99.90;;;;;;10557335;28;20400;-24
2023/02/05 03:31:45;;;;;;;16.95;4.75;;;8.80;99.90;;;;;;10568485;28;20056;-25
2023/02/05 03:37:01;;;;;;;11.82;4.80;;;9.60;99.90;;;;;;10558937;28;20090;-26
2023/02/05 03:42:17;;;;;;;11.50;5.10;;;9.20;99.90;;;;;;10566949;28;20486;-25
2023/02/05 03:47:31;;;;;;;13.73;5.53;;;8.80;99.90;;;;;;10559288;28;20097;-25
2023/02/05 03:52:40;;;;;;;12.48;5.32;;;9.10;99.90;;;;;;10558437;28;20105;-25
2023/02/05 03:57:48;;;;;;;11.93;5.55;;;10.00;99.90;;;;;;10565261;28;20055;-26
2023/02/05 04:02:51;;;;;;;12.20;5.03;;;9.40;99.90;;;;;;10564424;28;20118;-26
2023/02/05 04:07:53;;;;;;;11.48;5.03;;;9.20;99.90;;;;;;10562989;28;20050;-25
2023/02/05 04:12:55;;;;;;;10.20;3.97;;;9.00;99.90;;;;;;10564806;28;20127;-25
2023/02/05 04:17:58;;;;;;;15.90;3.20;;;8.80;99.90;;;;;;10571382;28;20424;-26
2023/02/05 04:23:02;;;;;;;11.15;2.92;;;9.70;99.90;;;;;;10570532;28;20115;-25
2023/02/05 04:28:04;;;;;;;9.82;1.92;;;10.70;99.90;;;;;;10564513;28;20450;-26
2023/02/05 04:33:08;;;;;;;8.45;1.60;;;10.80;99.90;;;;;;10563682;28;20072;-25
2023/02/05 04:38:09;;;;;;;5.38;1.85;;;11.20;99.90;;;;;;10553811;28;20130;-24
2023/02/05 04:43:11;;;;;;;6.82;2.13;;;13.50;99.90;;;;;;10568052;28;20441;-25
2023/02/05 04:48:15;;;;;;;13.07;1.83;;;11.40;99.90;;;;;;10561799;28;20046;-25
2023/02/05 04:53:16;;;;;;;6.47;3.15;;;10.40;99.90;;;;;;10569290;28;20075;-25
2023/02/05 04:58:20;;;;;;;7.78;2.17;;;13.20;99.90;;;;;;10574627;28;20142;-25
2023/02/05 05:03:23;;;;;;;10.30;1.70;;;11.90;99.90;;;;;;10565582;28;20404;-26
2023/02/05 05:08:25;;;;;;;14.55;2.50;;;11.90;99.90;;;;;;10560845;28;20036;-25
2023/02/05 05:13:27;;;;;;;11.98;2.25;;;12.80;99.90;;;;;;10556076;28;20116;-26
2023/02/05 05:18:30;;;;;;;8.77;2.22;;;13.30;99.90;;;;;;10562537;28;20071;-25
2023/02/05 05:23:33;;;;;;;9.52;2.78;;;12.60;99.90;;;;;;10572963;28;20168;-24
2023/02/05 05:28:35;;;;;;;;;;;13.70;99.90;;;;;;10569005;28;20063;-24
2023/02/05 05:33:38;;;;;;;6.28;1.85;;;12.60;99.90;;;;;;10561907;28;19924;-25
2023/02/05 05:38:40;;;;;;;3.72;1.73;;;12.40;99.90;;;;;;10560126;28;20144;-25
2023/02/05 05:43:48;;;;;;;7.22;1.92;;;13.20;99.90;;;;;;10560880;28;20542;-25
2023/02/05 05:48:53;;;;;;;9.15;2.03;;;12.80;99.90;;;;;;10568072;28;20056;-25
2023/02/05 05:53:55;;;;;;;5.80;2.25;;;12.70;99.90;;;;;;10557800;28;20064;-27
2023/02/05 05:58:57;;;;;;;8.50;1.52;;;13.90;99.90;;;;;;10548167;28;20090;-27
2023/02/05 06:04:01;;;;;;;10.15;1.58;;;12.30;99.90;;;;;;10565070;28;20532;-25
2023/02/05 06:09:02;;;;;;;9.55;1.95;;;12.80;99.90;;;;;;10555240;28;20472;-27
2023/02/05 06:14:04;;;;;;;19.30;2.33;;;13.00;99.90;;;;;;10553641;28;20489;-25
2023/02/05 06:19:08;;;;;;;5.22;1.65;;;12.60;99.90;;;;;;10557556;28;20076;-25
2023/02/05 06:24:09;;;;;;;12.77;2.45;;;15.00;99.90;;;;;;10558485;28;20044;-25
2023/02/05 06:29:11;;;;;;;11.10;1.70;;;12.50;99.90;;;;;;10561943;28;20053;-26
2023/02/05 06:34:14;;;;;;;13.20;2.25;;;13.70;99.90;;;;;;10553702;28;20070;-27
2023/02/05 06:39:16;;;;;;;12.38;2.20;;;12.50;99.90;;;;;;10566747;28;20056;-25
2023/02/05 06:44:18;;;;;;;11.98;2.33;;;14.40;99.90;;;;;;10554311;28;20135;-26
2023/02/05 06:49:21;;;;;;;10.17;2.30;;;13.80;99.90;;;;;;10567932;28;20142;-25
2023/02/05 06:54:24;;;;;;;7.13;1.80;;;15.40;99.90;;;;;;10549437;28;20079;-24
2023/02/05 06:59:26;;;;;;;19.40;2.08;;;14.80;99.90;;;;;;10566210;28;20079;-25
2023/02/05 07:14:58;;;;;;;8.60;1.90;;;12.70;99.90;;;;;;10506537;27;20124;-25
2023/02/05 07:20:00;;;;;;;17.45;2.60;;;12.70;99.90;;;;;;10522638;28;20489;-24
2023/02/05 07:25:02;;;;;;;14.85;2.25;;;11.60;99.90;;;;;;10521518;28;20044;-25
2023/02/05 07:30:07;;;;;;;15.48;2.40;;;13.00;99.90;;;;;;10521127;28;20048;-24
2023/02/05 07:35:08;;;;;;;10.27;1.75;;;12.50;99.90;;;;;;10520612;28;20066;-24
2023/02/05 07:40:11;;;;;;;9.30;1.60;;;12.90;99.90;;;;;;10519160;28;20079;-24
2023/02/05 07:45:14;;;;;;;14.30;2.17;;;13.70;99.90;;;;;;10508504;28;20052;-24
2023/02/05 07:50:16;;;;;;;11.27;2.03;;;13.20;99.90;;;;;;10524206;28;20469;-25
2023/02/05 07:55:18;;;;;;;8.87;1.63;;;14.80;99.90;;;;;;10516403;28;20072;-25
2023/02/05 08:00:23;;;;;;;9.43;1.73;;;14.90;99.90;;;;;;10502492;28;20076;-24
2023/02/05 08:05:25;;;;;;;32.95;4.15;;;14.60;99.90;;;;;;10505185;28;20055;-26
2023/02/05 08:10:27;;;;;;;20.07;3.03;;;13.50;99.90;;;;;;10502829;28;20051;-25
2023/02/05 08:15:30;;;;;;;37.27;4.83;;;14.00;99.90;;;;;;10504115;28;20117;-25
2023/02/05 08:20:32;;;;;;;15.20;2.92;;;12.70;99.90;;;;;;10495679;28;20132;-24
2023/02/05 08:25:34;;;;;;;15.63;2.60;;;14.70;99.90;;;;;;10474987;28;20524;-25
2023/02/05 08:30:38;;;;;;;12.00;2.80;;;12.50;99.90;;;;;;10460642;28;20872;-28
2023/02/05 08:35:40;;;;;;;18.38;3.65;;;14.10;99.90;;;;;;10481585;28;20079;-26
2023/02/05 08:40:42;;;;;;;26.73;3.15;;;13.60;99.90;;;;;;10475644;28;20136;-24
2023/02/05 08:45:47;;;;;;;18.43;3.20;;;13.10;99.90;;;;;;10488955;28;20079;-25
2023/02/05 08:50:49;;;;;;;11.00;2.35;;;13.40;99.90;;;;;;10490264;28;20057;-25
2023/02/05 08:55:55;;;;;;;15.00;2.63;;;14.10;92.20;;;;;;10488662;28;20143;-25
2023/02/05 09:01:02;;;;;;;19.23;2.97;;;14.00;99.90;;;;;;10485180;28;20178;-25
2023/02/05 09:06:06;;;;;;;16.98;2.72;;;12.60;99.90;;;;;;10488856;28;20063;-24
2023/02/05 09:11:08;;;;;;;13.10;3.67;;;14.50;99.90;;;;;;10487389;28;20057;-23
2023/02/05 09:16:11;;;;;;;14.75;2.97;;;14.30;99.90;;;;;;10488494;28;20053;-24
2023/02/05 09:21:14;;;;;;;29.48;5.32;;;15.00;99.90;;;;;;10483376;28;20117;-25
2023/02/05 09:26:16;;;;;;;16.30;3.20;;;14.10;99.90;;;;;;10488669;28;20083;-25
2023/02/05 09:31:20;;;;;;;33.27;3.90;;;14.40;99.90;;;;;;10477237;28;20135;-24
2023/02/05 09:36:23;;;;;;;17.48;4.22;;;13.30;99.90;;;;;;10488136;28;20413;-23
2023/02/05 09:41:30;;;;;;;11.90;2.85;;;14.20;99.90;;;;;;10489115;28;20052;-25
2023/02/05 09:46:44;;;;;;;23.40;3.60;;;15.80;99.90;;;;;;10483027;28;20470;-26
2023/02/05 09:51:49;;;;;;;11.30;3.38;;;13.60;99.90;;;;;;10472712;28;20047;-26
2023/02/05 09:56:56;;;;;;;22.83;3.38;;;14.80;99.90;;;;;;10476704;28;20040;-25
2023/02/05 10:02:01;;;;;;;23.05;3.53;;;13.40;99.90;;;;;;10473517;28;20222;-25
2023/02/05 10:07:22;;;;;;;26.52;3.58;;;14.20;99.90;;;;;;10482998;28;20599;-26
2023/02/05 10:12:36;;;;;;;25.77;4.88;;;14.10;99.90;;;;;;10483736;28;20054;-25
2023/02/05 10:17:51;;;;;;;21.38;3.50;;;12.80;99.90;;;;;;10486609;28;20140;-26
2023/02/05 10:23:07;;;;;;;19.58;2.83;;;14.10;99.90;;;;;;10478592;28;20157;-26
2023/02/05 10:28:20;;;;;;;23.45;3.35;;;13.70;98.50;;;;;;10482567;28;20061;-24
2023/02/05 10:33:38;;;;;;;13.80;2.75;;;13.90;99.90;;;;;;10479331;28;20052;-25
2023/02/05 10:38:43;;;;;;;17.88;2.75;;;13.90;99.90;;;;;;10486097;28;20072;-25
2023/02/05 10:43:51;;;;;;;23.13;3.00;;;15.00;99.90;;;;;;10483962;28;20481;-24
2023/02/05 10:49:01;;;;;;;23.80;3.97;;;15.40;99.90;;;;;;10475042;28;20147;-24
2023/02/05 10:54:03;;;;;;;17.38;3.80;;;14.80;99.90;;;;;;10485276;28;20135;-25
2023/02/05 10:59:06;;;;;;;14.52;2.60;;;15.30;99.90;;;;;;10482763;28;20048;-25
2023/02/05 11:04:14;;;;;;;16.23;3.03;;;14.90;99.90;;;;;;10479477;28;20608;-25
2023/02/05 11:09:32;;;;;;;26.67;3.30;;;14.80;99.50;;;;;;10464250;28;20048;-24
2023/02/05 11:14:36;;;;;;;11.10;1.77;;;14.70;99.90;;;;;;10480543;28;20060;-25
2023/02/05 11:19:40;;;;;;;15.52;2.63;;;15.60;99.90;;;;;;10467575;28;20482;-24
2023/02/05 11:24:42;;;;;;;10.68;1.95;;;14.70;99.90;;;;;;10477330;28;20049;-26
2023/02/05 11:29:44;;;;;;;14.85;2.85;;;15.70;90.70;;;;;;10474778;28;20049;-24
2023/02/05 11:34:47;;;;;;;17.63;3.13;;;15.30;99.90;;;;;;10478787;28;20164;-25
2023/02/05 11:39:53;;;;;;;20.35;2.50;;;15.60;99.90;;;;;;10475280;28;20439;-26
2023/02/05 11:44:58;;;;;;;11.02;1.85;;;15.50;99.90;;;;;;10478874;28;20127;-25
2023/02/05 11:50:03;;;;;;;14.88;2.50;;;15.30;93.30;;;;;;10474254;28;20053;-25
2023/02/05 11:55:07;;;;;;;20.55;2.78;;;15.90;98.90;;;;;;10471248;28;20177;-25
2023/02/05 12:00:21;;;;;;;13.68;2.72;;;14.40;99.90;;;;;;10493851;28;20048;-24
2023/02/05 12:05:31;;;;;;;16.05;2.72;;;15.40;99.90;;;;;;10488513;28;20041;-25
2023/02/05 12:10:39;;;;;;;19.75;3.00;;;14.80;99.90;;;;;;10494525;28;20081;-24
2023/02/05 12:15:52;;;;;;;23.77;2.78;;;15.90;99.90;;;;;;10490746;28;20421;-23
2023/02/05 12:21:08;;;;;;;25.20;3.05;;;14.80;99.90;;;;;;10487704;28;20046;-24
2023/02/05 12:26:26;;;;;;;20.67;4.03;;;14.40;95.10;;;;;;10482528;28;20049;-28
2023/02/05 12:31:40;;;;;;;24.98;4.25;;;15.40;99.90;;;;;;10481302;28;20075;-24
2023/02/05 12:36:55;;;;;;;14.32;2.95;;;14.90;99.90;;;;;;10491185;28;20127;-24
2023/02/05 12:42:06;;;;;;;17.30;4.65;;;15.20;99.90;;;;;;10485809;28;20084;-26
2023/02/05 12:47:18;;;;;;;23.27;4.22;;;14.20;99.90;;;;;;10490028;28;20055;-25
2023/02/05 12:52:36;;;;;;;18.90;4.28;;;14.00;99.90;;;;;;10477808;28;20083;-24
2023/02/05 12:57:42;;;;;;;22.77;6.05;;;14.80;99.90;;;;;;10484929;28;20064;-25
2023/02/05 13:02:53;;;;;;;17.75;4.25;;;15.40;99.60;;;;;;10485839;28;20098;-26
2023/02/05 13:08:01;;;;;;;24.63;4.05;;;14.70;99.90;;;;;;10480849;28;20045;-25
2023/02/05 13:13:10;;;;;;;16.52;4.43;;;15.10;99.90;;;;;;10482856;28;20549;-25
2023/02/05 13:18:17;;;;;;;23.65;4.80;;;16.50;99.90;;;;;;10469739;28;20068;-25
2023/02/05 13:28:43;;;;;;;25.33;5.43;;;14.80;90.00;;;;;;10479797;28;20535;-25
2023/02/05 13:33:45;;;;;;;26.80;4.85;;;15.20;99.90;;;;;;10484634;28;20516;-23
2023/02/05 13:39:01;;;;;;;22.17;5.60;;;15.00;99.90;;;;;;10489834;28;20053;-25
2023/02/05 13:44:43;;;;;;;17.50;4.70;;;15.10;96.20;;;;;;10488179;28;20046;-25
2023/02/05 13:50:25;;;;;;;18.42;5.70;;;15.60;99.90;;;;;;10482862;28;20136;-26
2023/02/05 13:56:03;;;;;;;19.87;5.13;;;14.90;96.00;;;;;;10315349;28;20062;-26
2023/02/05 14:01:13;;;;;;;22.13;4.18;;;15.10;99.90;;;;;;10457894;28;20453;-26
2023/02/05 14:06:23;;;;;;;24.33;5.22;;;14.40;99.90;;;;;;10484798;28;20079;-25
2023/02/05 14:11:27;;;;;;;25.92;5.00;;;14.40;94.00;;;;;;10491788;28;20049;-24
2023/02/05 14:16:34;;;;;;;19.10;6.70;;;14.90;99.90;;;;;;10484894;28;20127;-25
2023/02/05 14:22:11;;;;;;;22.67;4.70;;;16.00;99.90;;;;;;10470736;28;20056;-25
2023/02/05 14:27:47;;;;;;;25.58;4.97;;;15.30;99.90;;;;;;10484194;28;20052;-25
2023/02/05 14:32:59;;;;;;;20.02;5.95;;;14.60;99.90;;;;;;10484617;28;20135;-25
2023/02/05 14:38:14;;;;;;;30.40;5.35;;;14.60;99.90;;;;;;10482994;28;20124;-26
2023/02/05 14:43:27;;;;;;;22.63;5.85;;;15.20;99.90;;;;;;10474836;28;20512;-24
2023/02/05 14:48:31;;;;;;;22.42;5.15;;;14.70;90.00;;;;;;10472219;28;20063;-25
2023/02/05 14:53:35;;;;;;;22.23;5.45;;;15.40;99.90;;;;;;10475595;28;20087;-25
2023/02/05 14:58:43;;;;;;;22.05;5.25;;;15.00;99.90;;;;;;10466736;28;20044;-26
2023/02/05 15:03:45;;;;;;;21.23;5.00;;;15.70;99.90;;;;;;10469061;28;20142;-25
2023/02/05 15:08:53;;;;;;;19.63;4.63;;;15.40;98.80;;;;;;10477224;28;20055;-25
2023/02/05 15:14:36;;;;;;;22.73;5.57;;;16.20;97.80;;;;;;10472426;28;20063;-25
2023/02/05 15:19:42;;;;;;;20.15;5.72;;;15.50;99.90;;;;;;10465028;28;20497;-26
2023/02/05 15:24:45;;;;;;;19.15;4.03;;;15.50;95.10;;;;;;10475845;28;20063;-24
2023/02/05 15:29:53;;;;;;;17.52;4.90;;;15.80;85.30;;;;;;10473360;28;20088;-25
2023/02/05 15:34:58;;;;;;;12.20;3.85;;;15.60;99.90;;;;;;10480159;28;20138;-26
2023/02/05 15:40:05;;;;;;;22.95;4.28;;;17.30;99.90;;;;;;10493844;28;20134;-27
2023/02/05 15:45:24;;;;;;;31.30;4.95;;;17.10;98.50;;;;;;10489581;28;20596;-27
2023/02/05 15:50:28;;;;;;;17.45;5.07;;;16.60;99.90;;;;;;10475321;28;20159;-25
2023/02/05 15:55:30;;;;;;;19.75;4.00;;;16.90;99.90;;;;;;10475916;28;20337;-23
2023/02/05 16:00:46;;;;;;;9.77;4.10;;;17.10;99.50;;;;;;10487128;28;20141;-25
2023/02/05 16:05:51;;;;;;;9.70;3.88;;;17.90;98.30;;;;;;10493072;28;20098;-27
2023/02/05 16:10:56;;;;;;;15.45;5.32;;;16.80;99.90;;;;;;10489412;28;20078;-25
2023/02/05 16:16:04;;;;;;;10.13;3.55;;;17.40;99.70;;;;;;10489125;28;20079;-25
2023/02/05 16:21:15;;;;;;;12.25;4.53;;;16.40;99.90;;;;;;10489586;28;20139;-26
2023/02/05 16:26:21;;;;;;;29.80;4.90;;;17.90;98.00;;;;;;10485278;28;20065;-25
2023/02/05 16:31:26;;;;;;;14.70;4.45;;;16.90;99.90;;;;;;10488784;28;20048;-27
2023/02/05 16:36:31;;;;;;;27.88;6.38;;;16.20;99.90;;;;;;10484757;28;20139;-26
2023/02/05 16:41:36;;;;;;;31.08;5.10;;;15.00;99.90;;;;;;10476126;28;20547;-26
2023/02/05 16:46:39;;;;;;;29.23;6.47;;;14.50;98.60;;;;;;10475337;28;20040;-25
2023/02/05 16:51:55;;;;;;;17.23;4.43;;;13.80;99.90;;;;;;10483550;28;20040;-26
2023/02/05 16:57:02;;;;;;;19.27;4.88;;;13.60;99.90;;;;;;10488769;28;20055;-26
2023/02/05 17:02:06;;;;;;;26.10;4.05;;;14.40;99.90;;;;;;10479889;28;20052;-26
2023/02/05 17:07:17;;;;;;;19.98;4.15;;;15.00;99.90;;;;;;10485914;28;20044;-25
2023/02/05 17:12:39;;;;;;;25.67;4.88;;;15.20;99.90;;;;;;10470755;28;20504;-25
2023/02/05 17:17:50;;;;;;;15.43;3.40;;;16.20;99.90;;;;;;10489613;28;20123;-25
2023/02/05 17:23:08;;;;;;;15.18;3.20;;;17.40;99.20;;;;;;10475339;28;20048;-26
2023/02/05 17:28:15;;;;;;;10.32;2.72;;;18.00;96.90;;;;;;10480177;28;20086;-26
2023/02/05 17:33:20;;;;;;;33.83;5.15;;;18.00;96.70;;;;;;10477504;28;20075;-29
2023/02/05 17:38:23;;;;;;;16.10;3.72;;;16.10;92.60;;;;;;10472234;28;20088;-26
2023/02/05 17:43:24;;;;;;;11.23;3.17;;;17.70;97.90;;;;;;10475501;28;20560;-27
2023/02/05 17:48:28;;;;;;;24.92;5.75;;;17.60;98.00;;;;;;10458948;28;20049;-25
2023/02/05 17:53:30;;;;;;;14.63;3.90;;;17.50;96.70;;;;;;10478184;28;20131;-26
2023/02/05 17:58:32;;;;;;;13.02;3.47;;;17.80;97.60;;;;;;10480612;28;20051;-26
2023/02/05 18:03:36;;;;;;;17.65;3.83;;;18.30;95.70;;;;;;10472501;28;20052;-27
2023/02/05 18:08:38;;;;;;;12.05;2.72;;;18.20;95.50;;;;;;10478756;28;20048;-30
2023/02/05 18:13:39;;;;;;;18.52;3.78;;;18.40;91.80;;;;;;10478613;28;20133;-27
2023/02/05 18:18:43;;;;;;;15.43;4.13;;;18.40;95.10;;;;;;10466460;28;20093;-29
2023/02/05 18:23:44;;;;;;;26.50;7.65;;;16.50;99.90;;;;;;10467703;28;20041;-26
2023/02/05 18:28:46;;;;;;;30.37;12.67;;;17.20;99.20;;;;;;10468734;28;20076;-24
2023/02/05 18:33:51;;;;;;;42.33;12.10;;;16.90;99.90;;;;;;10484036;28;20060;-27
2023/02/05 18:38:56;;;;;;;29.88;8.93;;;15.50;99.90;;;;;;10476380;28;20703;-25
2023/02/05 18:43:59;;;;;;;41.35;15.88;;;15.00;99.70;;;;;;10462871;28;20048;-28
2023/02/05 18:49:02;;;;;;;38.38;10.45;;;16.10;99.90;;;;;;10472016;28;20076;-28
2023/02/05 18:54:05;;;;;;;36.17;10.00;;;14.70;99.90;;;;;;10472919;28;20041;-31
2023/02/05 18:59:12;;;;;;;45.15;17.17;;;14.60;99.90;;;;;;10478372;28;20052;-27
2023/02/05 19:04:17;;;;;;;42.42;15.68;;;14.20;99.70;;;;;;10472571;28;20554;-30
2023/02/05 19:09:20;;;;;;;55.78;17.98;;;14.20;99.90;;;;;;10467086;28;20053;-27
2023/02/05 19:14:24;;;;;;;50.70;18.17;;;14.40;99.90;;;;;;10486986;28;20512;-27
2023/02/05 19:19:29;;;;;;;53.13;23.80;;;12.80;99.90;;;;;;10483462;28;20043;-29
2023/02/05 19:24:31;;;;;;;53.58;21.48;;;14.00;99.90;;;;;;10478435;28;20044;-28
2023/02/05 19:29:37;;;;;;;40.20;13.97;;;14.60;99.90;;;;;;10487328;28;20048;-26
2023/02/05 19:34:42;;;;;;;34.63;11.73;;;16.70;98.90;;;;;;10478780;28;20045;-27
2023/02/05 19:39:44;;;;;;;20.63;7.55;;;17.80;97.60;;;;;;10474024;28;20545;-27
2023/02/05 19:44:45;;;;;;;15.10;5.47;;;17.60;98.10;;;;;;10475707;28;20060;-26
2023/02/05 19:49:49;;;;;;;13.73;4.97;;;18.30;95.20;;;;;;10465109;28;20144;-24
2023/02/05 19:54:51;;;;;;;13.43;4.32;;;18.60;94.50;;;;;;10470513;28;20045;-27
2023/02/05 19:59:53;;;;;;;18.83;4.78;;;18.30;95.40;;;;;;10471825;28;20056;-34
2023/02/05 20:04:56;;;;;;;17.45;5.13;;;18.70;93.90;;;;;;10470784;28;20052;-27
2023/02/05 20:09:58;;;;;;;22.73;8.65;;;18.60;94.00;;;;;;10472898;28;20041;-27
2023/02/05 20:15:00;;;;;;;25.98;10.32;;;18.70;93.90;;;;;;10481820;28;20056;-25
2023/02/05 20:20:04;;;;;;;26.63;10.73;;;18.70;94.00;;;;;;10470545;28;20489;-28
2023/02/05 20:25:06;;;;;;;30.42;13.52;;;18.70;93.80;;;;;;10476835;28;20073;-30
2023/02/05 20:35:34;;;;;;;25.50;10.50;;;18.80;93.10;;;;;;10467383;28;20052;-26
2023/02/05 20:40:36;;;;;;;14.00;4.68;;;18.80;93.10;;;;;;10470490;28;20041;-28
2023/02/05 20:45:38;;;;;;;11.80;4.55;;;18.80;93.00;;;;;;10470381;28;20048;-28
2023/02/05 20:50:42;;;;;;;23.13;8.48;;;18.80;92.60;;;;;;10474502;28;20040;-26
2023/02/05 20:55:43;;;;;;;23.25;7.63;;;18.80;92.70;;;;;;10480933;28;20056;-27
2023/02/05 21:00:45;;;;;;;17.00;7.97;;;18.80;92.50;;;;;;10467544;28;20084;-26
2023/02/05 21:05:49;;;;;;;24.85;11.30;;;18.80;92.50;;;;;;10473063;28;20053;-27
2023/02/05 21:10:51;;;;;;;23.83;10.60;;;18.80;92.60;;;;;;10468588;28;20067;-27
2023/02/05 21:15:54;;;;;;;31.40;11.23;;;18.80;92.20;;;;;;10472866;28;20377;-28
2023/02/05 21:21:05;;;;;;;26.58;9.27;;;18.80;92.10;;;;;;10474374;28;20049;-27
2023/02/05 21:26:08;;;;;;;24.83;9.82;;;18.80;92.10;;;;;;10468846;28;20072;-28
2023/02/05 21:31:11;;;;;;;26.27;10.43;;;18.80;91.90;;;;;;10475880;28;20416;-27
2023/02/05 21:36:16;;;;;;;20.27;9.55;;;18.80;91.80;;;;;;10469297;28;20145;-26
2023/02/05 21:41:19;;;;;;;20.10;8.43;;;18.80;91.70;;;;;;10473534;28;20063;-27
2023/02/05 21:46:22;;;;;;;15.23;7.32;;;18.70;91.90;;;;;;10464612;28;20080;-26
2023/02/05 21:51:27;;;;;;;22.10;8.50;;;18.80;91.70;;;;;;10478313;28;20076;-26
2023/02/05 21:56:32;;;;;;;20.15;8.85;;;18.70;92.10;;;;;;10473019;28;20273;-25
2023/02/05 22:01:35;;;;;;;15.60;6.07;;;18.70;91.60;;;;;;10485908;28;20413;-26
2023/02/05 22:06:40;;;;;;;13.43;4.57;;;18.70;91.90;;;;;;10489189;28;20431;-26
2023/02/05 22:11:44;;;;;;;11.20;4.20;;;18.70;92.00;;;;;;10483211;28;20056;-26
2023/02/05 22:16:46;;;;;;;11.10;3.67;;;18.60;92.00;;;;;;10484256;28;20507;-29
2023/02/05 22:21:49;;;;;;;13.15;5.20;;;18.60;92.00;;;;;;10481498;28;20779;-26
2023/02/05 22:26:51;;;;;;;20.30;5.50;;;18.50;92.10;;;;;;10485739;28;20548;-26
2023/02/05 22:31:53;;;;;;;8.07;2.92;;;18.40;92.10;;;;;;10480008;28;20052;-26
2023/02/05 22:36:58;;;;;;;11.57;2.92;;;18.40;92.40;;;;;;10479979;28;20045;-27
2023/02/05 22:42:00;;;;;;;10.32;4.05;;;18.40;92.30;;;;;;10472049;28;20056;-26
2023/02/05 22:47:02;;;;;;;;;;;18.50;92.30;;;;;;10459904;28;20048;-25
2023/02/05 22:52:06;;;;;;;10.00;4.65;;;18.40;92.00;;;;;;10483517;28;20398;-27
2023/02/05 22:57:07;;;;;;;14.82;5.65;;;18.40;92.20;;;;;;10476892;28;20110;-27
2023/02/05 23:02:09;;;;;;;10.50;4.55;;;18.50;91.90;;;;;;10475060;28;20131;-26
2023/02/05 23:07:12;;;;;;;11.05;4.18;;;18.40;91.90;;;;;;10472698;28;20144;-26
2023/02/05 23:12:14;;;;;;;11.38;3.75;;;18.40;91.90;;;;;;10472301;28;20574;-25
2023/02/05 23:17:16;;;;;;;16.20;5.83;;;18.40;92.00;;;;;;10471557;28;20100;-27
2023/02/05 23:22:19;;;;;;;15.93;5.40;;;18.40;92.00;;;;;;10474878;28;20139;-25
2023/02/05 23:27:21;;;;;;;8.77;3.80;;;18.40;91.90;;;;;;10467813;28;20508;-27
2023/02/05 23:32:23;;;;;;;10.75;5.10;;;18.40;91.80;;;;;;10472241;28;20138;-25
2023/02/05 23:37:26;;;;;;;14.03;5.87;;;18.40;91.80;;;;;;10480445;28;20155;-26
2023/02/05 23:42:28;;;;;;;11.77;4.35;;;18.40;91.70;;;;;;10479463;28;20521;-26
2023/02/05 23:47:30;;;;;;;12.32;4.40;;;18.40;91.70;;;;;;10478323;28;20056;-27
2023/02/05 23:52:33;;;;;;;11.80;4.22;;;18.30;91.70;;;;;;10480401;28;20070;-27
2023/02/05 23:57:35;;;;;;;10.73;3.90;;;18.30;91.60;;;;;;10481911;28;20732;-26
